Time;durP1;ratioP1;P1;durP2;ratioP2;P2;SDS_P1;SDS_P2;PMS_P1;PMS_P2;Temp;Humidity;BMP_temperature;BMP_pressure;BME280_temperature;BME280_humidity;BME280_pressure;Samples;Min_cycle;Max_cycle;Signal;HPM_P1;HPM_P2
2022/07/29 00:01:48;;;;;;;3.20;1.45;;;;;;;16.10;nan;101735.59;5033537;28;20049;-61
2022/07/29 00:04:13;;;;;;;3.65;1.30;;;;;;;16.08;nan;101736.59;5033436;28;20034;-60
2022/07/29 00:06:39;;;;;;;3.80;1.70;;;;;;;15.96;nan;101713.19;5033272;28;20037;-61
2022/07/29 00:09:04;;;;;;;2.33;1.13;;;;;;;15.98;nan;101735.22;5033448;28;20342;-60
2022/07/29 00:11:30;;;;;;;1.20;1.08;;;;;;;15.99;nan;101737.81;5033341;28;20396;-60
2022/07/29 00:13:55;;;;;;;2.72;1.20;;;;;;;15.97;nan;101730.81;5033478;28;20068;-61
2022/07/29 00:16:20;;;;;;;2.65;1.80;;;;;;;15.95;nan;101724.72;5033244;28;20108;-61
2022/07/29 00:18:46;;;;;;;2.85;1.10;;;;;;;15.63;nan;101679.09;5033261;28;20477;-61
2022/07/29 00:21:11;;;;;;;2.78;1.10;;;;;;;15.88;nan;101713.47;5032920;28;20040;-62
2022/07/29 00:23:36;;;;;;;2.35;1.23;;;;;;;15.56;nan;101667.00;5032976;28;20042;-61
2022/07/29 00:26:02;;;;;;;2.03;1.20;;;;;;;15.72;nan;101707.06;5033096;28;20092;-61
2022/07/29 00:28:27;;;;;;;4.43;1.23;;;;;;;15.49;nan;101664.66;5033052;28;20485;-61
2022/07/29 00:30:52;;;;;;;2.55;1.20;;;;;;;15.46;nan;101667.41;5033029;28;20133;-61
2022/07/29 00:33:18;;;;;;;3.55;1.30;;;;;;;15.72;nan;101712.38;5032847;28;20061;-61
2022/07/29 00:35:43;;;;;;;4.22;1.40;;;;;;;15.49;nan;101675.28;5031625;28;20396;-60
2022/07/29 00:38:09;;;;;;;4.82;1.20;;;;;;;15.68;nan;101705.44;5033018;28;20030;-60
2022/07/29 00:40:34;;;;;;;1.70;1.25;;;;;;;15.63;nan;101697.69;5032988;28;20146;-61
2022/07/29 00:43:00;;;;;;;6.07;1.45;;;;;;;15.65;nan;101709.09;5031717;28;20036;-61
2022/07/29 00:45:25;;;;;;;2.40;1.20;;;;;;;15.36;nan;101660.72;5032817;28;20042;-62
2022/07/29 00:47:50;;;;;;;2.70;1.20;;;;;;;15.34;nan;101657.25;5032724;28;20052;-61
2022/07/29 00:50:16;;;;;;;2.85;1.50;;;;;;;15.49;nan;101686.75;5032641;28;20446;-60
2022/07/29 00:52:42;;;;;;;3.20;1.50;;;;;;;15.51;nan;101686.69;5032585;28;20487;-60
2022/07/29 00:55:13;;;;;;;3.45;1.27;;;;;;;15.49;nan;101696.50;5031336;28;20063;-59
2022/07/29 00:57:39;;;;;;;;;;;;;;;15.50;nan;101692.94;5031929;28;20026;-60
2022/07/29 01:00:06;;;;;;;3.20;1.70;;;;;;;15.19;nan;101648.97;5031469;28;19913;-60
2022/07/29 01:02:32;;;;;;;4.85;1.50;;;;;;;15.45;nan;101718.72;5031127;28;20034;-60
2022/07/29 01:04:57;;;;;;;1.40;1.25;;;;;;;15.40;nan;101699.47;5031919;28;20516;-60
2022/07/29 01:07:24;;;;;;;2.65;1.40;;;;;;;15.25;nan;101668.22;5032489;28;20037;-60
2022/07/29 01:09:50;;;;;;;2.22;1.52;;;;;;;15.38;nan;101685.41;5031194;28;20039;-60
2022/07/29 01:12:21;;;;;;;4.18;1.45;;;;;;;15.35;nan;101689.06;5031212;28;20427;-61
2022/07/29 01:14:48;;;;;;;2.20;1.40;;;;;;;15.29;nan;101680.47;5032361;28;20033;-59
2022/07/29 01:17:33;;;;;;;2.30;1.60;;;;;;;15.05;nan;101627.44;5032351;28;20025;-60
2022/07/29 01:20:05;;;;;;;4.22;1.50;;;;;;;15.30;nan;101675.06;5032444;28;20075;-59
2022/07/29 01:22:34;;;;;;;3.47;1.30;;;;;;;15.30;nan;101671.56;5032232;28;20034;-60
2022/07/29 01:25:10;;;;;;;2.72;1.48;;;;;;;15.01;nan;101638.19;5032354;28;20025;-59
2022/07/29 01:28:00;;;;;;;3.70;1.67;;;;;;;15.26;nan;101673.47;5030634;28;20042;-60
2022/07/29 01:30:26;;;;;;;3.78;1.40;;;;;;;14.93;nan;101627.91;5032110;28;20037;-60
2022/07/29 01:32:59;;;;;;;3.72;1.73;;;;;;;15.02;nan;101646.13;5030932;28;20040;-60
2022/07/29 01:35:43;;;;;;;2.45;1.70;;;;;;;14.89;nan;101623.63;5030895;28;20029;-60
2022/07/29 01:38:12;;;;;;;1.95;1.17;;;;;;;15.16;nan;101675.63;5030930;28;20038;-59
2022/07/29 01:40:47;;;;;;;2.47;1.52;;;;;;;15.11;nan;101672.28;5031015;28;20063;-61
2022/07/29 01:43:16;;;;;;;3.67;1.58;;;;;;;14.73;nan;101603.94;5030706;28;20388;-60
2022/07/29 01:45:45;;;;;;;2.40;1.42;;;;;;;15.05;nan;101675.16;5030939;28;20120;-61
2022/07/29 01:48:10;;;;;;;2.88;1.75;;;;;;;15.05;nan;101671.63;5031766;28;20056;-61
2022/07/29 01:50:40;;;;;;;1.87;1.30;;;;;;;15.03;nan;101662.88;5031883;28;20059;-60
2022/07/29 01:53:08;;;;;;;3.75;1.50;;;;;;;15.01;nan;101668.22;5030882;28;20310;-60
2022/07/29 01:55:36;;;;;;;3.80;1.38;;;;;;;14.80;nan;101618.66;5030939;28;20033;-59
2022/07/29 01:58:05;;;;;;;4.50;2.13;;;;;;;14.65;nan;101598.91;5030619;28;20036;-60
2022/07/29 02:00:31;;;;;;;1.30;1.20;;;;;;;14.95;nan;101652.56;5030156;28;20489;-61
2022/07/29 02:02:58;;;;;;;1.98;1.50;;;;;;;14.91;nan;101642.13;5030683;28;20160;-62
2022/07/29 02:05:25;;;;;;;1.77;1.45;;;;;;;14.93;nan;101648.25;5031743;28;20072;-60
2022/07/29 02:07:52;;;;;;;6.13;1.58;;;;;;;14.84;nan;101633.53;5030370;28;20116;-60
2022/07/29 02:10:21;;;;;;;2.08;1.60;;;;;;;14.89;nan;101646.59;5030655;28;20038;-62
2022/07/29 02:12:48;;;;;;;2.45;1.38;;;;;;;14.54;nan;101586.97;5030590;28;20037;-59
2022/07/29 02:15:14;;;;;;;4.10;1.50;;;;;;;14.90;nan;101646.56;5030495;28;20528;-61
2022/07/29 02:17:50;;;;;;;5.32;1.65;;;;;;;14.54;nan;101584.31;5032250;28;20041;-61
2022/07/29 02:20:16;;;;;;;1.60;1.30;;;;;;;14.85;nan;101634.41;5034317;28;20053;-61
2022/07/29 02:22:42;;;;;;;3.55;1.55;;;;;;;14.46;nan;101573.16;5034159;28;20037;-61
2022/07/29 02:25:08;;;;;;;4.47;1.70;;;;;;;14.82;nan;101638.03;5017803;28;20037;-61
2022/07/29 02:27:34;;;;;;;3.28;1.60;;;;;;;13.79;nan;101460.84;5017244;28;20053;-60
2022/07/29 02:30:03;;;;;;;3.20;1.75;;;;;;;14.68;nan;101621.78;5033853;28;20400;-61
2022/07/29 02:32:29;;;;;;;4.72;1.60;;;;;;;14.79;nan;101642.59;5035114;28;20029;-59
2022/07/29 02:34:55;;;;;;;4.80;1.60;;;;;;;14.33;nan;101562.13;5035233;28;20041;-60
2022/07/29 02:37:21;;;;;;;4.47;1.70;;;;;;;14.51;nan;101593.25;5033810;28;20079;-60
2022/07/29 02:39:47;;;;;;;4.25;1.67;;;;;;;14.76;nan;101637.41;5035564;28;20034;-60
2022/07/29 02:42:16;;;;;;;4.03;1.80;;;;;;;14.74;nan;101634.78;5034055;28;20096;-59
2022/07/29 02:44:41;;;;;;;5.45;1.73;;;;;;;14.53;nan;101602.03;5033762;28;20029;-61
2022/07/29 02:47:20;;;;;;;4.18;2.10;;;;;;;14.74;nan;101645.38;5034766;28;20500;-60
2022/07/29 02:49:52;;;;;;;5.15;1.48;;;;;;;14.32;nan;101578.06;5033728;28;20116;-60
2022/07/29 02:52:32;;;;;;;4.47;1.92;;;;;;;14.67;nan;101638.59;5033837;28;20041;-60
2022/07/29 02:55:07;;;;;;;2.75;1.70;;;;;;;14.38;nan;101581.38;5017064;28;20057;-60
2022/07/29 02:57:36;;;;;;;2.67;1.80;;;;;;;14.67;nan;101649.19;5033443;28;20093;-61
2022/07/29 03:00:05;;;;;;;3.25;1.63;;;;;;;14.65;nan;101649.25;5033766;28;20056;-60
2022/07/29 03:02:36;;;;;;;3.50;1.92;;;;;;;14.65;nan;101649.25;5034591;28;20083;-60
2022/07/29 03:05:03;;;;;;;2.65;1.77;;;;;;;14.63;nan;101643.16;5033635;28;20035;-60
2022/07/29 03:07:29;;;;;;;2.92;1.80;;;;;;;14.28;nan;101602.91;5033248;28;20041;-61
2022/07/29 03:09:55;;;;;;;2.95;1.77;;;;;;;14.58;nan;101628.34;5016646;28;20032;-61
2022/07/29 03:12:21;;;;;;;2.03;1.80;;;;;;;14.34;nan;101595.66;5034419;28;20352;-61
2022/07/29 03:14:47;;;;;;;4.07;2.05;;;;;;;14.49;nan;101611.00;5034640;28;20021;-60
2022/07/29 03:17:12;;;;;;;4.10;1.85;;;;;;;14.21;nan;101562.56;5033273;28;20464;-61
2022/07/29 03:19:38;;;;;;;3.05;2.05;;;;;;;14.48;nan;101616.31;5033141;28;20052;-60
2022/07/29 03:22:04;;;;;;;5.68;2.05;;;;;;;14.43;nan;101607.69;5033206;28;20042;-60
2022/07/29 03:24:36;;;;;;;5.55;2.03;;;;;;;14.45;nan;101616.44;5034065;28;20049;-60
2022/07/29 03:27:03;;;;;;;5.35;2.10;;;;;;;14.43;nan;101620.94;5032778;28;20084;-61
2022/07/29 03:29:29;;;;;;;2.60;2.40;;;;;;;14.44;nan;101625.31;5033959;28;20095;-61
2022/07/29 03:31:55;;;;;;;4.90;2.15;;;;;;;14.10;nan;101575.28;5032975;28;20427;-62
2022/07/29 03:34:20;;;;;;;3.35;1.92;;;;;;;14.40;nan;101613.97;5032666;28;20461;-60
2022/07/29 03:36:46;;;;;;;4.22;2.45;;;;;;;14.33;nan;101608.97;5033975;28;20038;-60
2022/07/29 03:39:16;;;;;;;3.88;2.28;;;;;;;14.04;nan;101567.56;5016102;28;20469;-61
2022/07/29 03:41:42;;;;;;;3.33;1.90;;;;;;;14.05;nan;101559.59;5032801;28;20547;-60
2022/07/29 03:44:08;;;;;;;4.57;2.30;;;;;;;14.01;nan;101560.59;5049398;28;20398;-59
2022/07/29 03:46:34;;;;;;;2.85;2.20;;;;;;;14.03;nan;101560.56;5033910;28;20038;-63
2022/07/29 03:49:01;;;;;;;3.22;2.28;;;;;;;14.27;nan;101596.78;5032580;28;20041;-60
2022/07/29 03:51:26;;;;;;;3.58;2.33;;;;;;;14.36;nan;101614.16;5032230;28;20133;-62
2022/07/29 03:53:52;;;;;;;3.42;2.15;;;;;;;14.03;nan;101563.22;5032256;28;20128;-61
2022/07/29 03:56:21;;;;;;;3.45;2.13;;;;;;;14.35;nan;101621.22;5032478;28;20124;-61
2022/07/29 03:58:48;;;;;;;2.38;2.17;;;;;;;14.28;nan;101602.91;5048865;28;20033;-60
2022/07/29 04:01:14;;;;;;;4.22;2.58;;;;;;;14.05;nan;101569.31;5032294;28;20041;-60
2022/07/29 04:03:39;;;;;;;3.55;2.17;;;;;;;14.35;nan;101615.94;5032413;28;20428;-61
2022/07/29 04:06:06;;;;;;;2.72;2.22;;;;;;;14.18;nan;101590.94;5032155;28;20471;-60
2022/07/29 04:08:32;;;;;;;3.17;2.03;;;;;;;14.03;nan;101564.06;5032342;28;20029;-61
2022/07/29 04:10:58;;;;;;;4.35;1.98;;;;;;;14.11;nan;101579.69;5015869;28;20124;-60
2022/07/29 04:13:24;;;;;;;8.07;2.40;;;;;;;14.33;nan;101623.03;5032008;28;20029;-61
2022/07/29 04:15:49;;;;;;;6.63;2.33;;;;;;;14.32;nan;101623.97;5033225;28;20107;-60
2022/07/29 04:18:15;;;;;;;3.60;2.63;;;;;;;14.00;nan;101572.13;5033315;28;20510;-60
2022/07/29 04:20:40;;;;;;;16.42;2.90;;;;;;;14.31;nan;101613.38;5031847;28;20535;-61
2022/07/29 04:23:05;;;;;;;3.60;2.28;;;;;;;14.35;nan;101623.00;5031730;28;20073;-62
2022/07/29 04:25:31;;;;;;;2.95;2.30;;;;;;;14.35;nan;101630.94;5033140;28;21109;-60
2022/07/29 04:28:01;;;;;;;2.72;2.42;;;;;;;14.04;nan;101571.06;5033083;28;20037;-61
2022/07/29 04:30:28;;;;;;;4.97;2.40;;;;;;;14.02;nan;101567.63;5032987;28;20038;-61
2022/07/29 04:32:53;;;;;;;2.35;2.05;;;;;;;14.36;nan;101619.44;5032929;28;20106;-60
2022/07/29 04:35:19;;;;;;;2.88;2.22;;;;;;;14.10;nan;101576.16;5032833;28;20515;-60
2022/07/29 04:37:45;;;;;;;5.50;3.35;;;;;;;14.03;nan;101564.06;5032771;28;20084;-61
2022/07/29 04:40:11;;;;;;;3.60;2.30;;;;;;;14.29;nan;101600.22;5047641;28;20033;-61
2022/07/29 04:42:37;;;;;;;3.13;2.50;;;;;;;14.32;nan;101621.34;5031617;28;20425;-61
2022/07/29 04:45:02;;;;;;;3.58;2.40;;;;;;;14.35;nan;101609.75;5032842;28;20025;-61
2022/07/29 04:47:27;;;;;;;4.32;2.35;;;;;;;14.03;nan;101563.22;5033023;28;20037;-60
2022/07/29 04:49:53;;;;;;;3.33;2.22;;;;;;;14.36;nan;101622.09;5032562;28;20038;-60
2022/07/29 04:52:18;;;;;;;3.00;2.70;;;;;;;14.30;nan;101609.88;5032660;28;20040;-60
2022/07/29 04:54:44;;;;;;;3.72;2.33;;;;;;;14.32;nan;101620.44;5048162;28;20043;-63
2022/07/29 04:57:09;;;;;;;3.13;2.30;;;;;;;13.87;nan;101541.69;5032559;28;20033;-61
2022/07/29 04:59:34;;;;;;;4.00;2.05;;;;;;;14.32;nan;101618.69;5032396;28;20037;-61
2022/07/29 05:01:59;;;;;;;4.15;2.30;;;;;;;14.32;nan;101608.09;5031169;28;20033;-61
2022/07/29 05:04:25;;;;;;;4.28;2.15;;;;;;;14.34;nan;101605.38;5032336;28;20037;-61
2022/07/29 05:06:50;;;;;;;2.58;2.15;;;;;;;13.99;nan;101559.78;5032621;28;20033;-61
2022/07/29 05:09:16;;;;;;;4.75;3.03;;;;;;;14.32;nan;101623.97;5047759;28;20444;-62
2022/07/29 05:11:41;;;;;;;3.38;2.50;;;;;;;14.30;nan;101617.81;5032174;28;20048;-61
2022/07/29 05:14:06;;;;;;;2.17;1.95;;;;;;;14.32;nan;101620.44;5031162;28;20052;-60
2022/07/29 05:16:32;;;;;;;3.35;2.50;;;;;;;14.32;nan;101634.56;5032139;28;20100;-60
2022/07/29 05:18:57;;;;;;;5.90;2.63;;;;;;;14.00;nan;101565.97;5032744;28;20684;-61
2022/07/29 05:21:22;;;;;;;4.57;2.47;;;;;;;14.35;nan;101629.16;5032019;28;20033;-62
2022/07/29 05:23:48;;;;;;;4.25;2.22;;;;;;;14.38;nan;101625.53;5031913;28;20035;-60
2022/07/29 05:26:13;;;;;;;4.03;2.58;;;;;;;14.34;nan;101610.66;5031778;28;20160;-59
2022/07/29 05:28:38;;;;;;;4.50;2.60;;;;;;;14.39;nan;101611.41;5030650;28;20091;-61
2022/07/29 05:31:03;;;;;;;2.35;1.98;;;;;;;14.24;nan;101577.47;5032401;28;20079;-60
2022/07/29 05:33:29;;;;;;;2.47;2.03;;;;;;;14.65;nan;101640.47;5031865;28;20370;-60
2022/07/29 05:35:54;;;;;;;3.42;2.30;;;;;;;14.49;nan;101580.97;5031872;28;20038;-60
2022/07/29 05:38:20;;;;;;;3.33;2.00;;;;;;;15.01;nan;101639.06;5032007;28;20529;-60
2022/07/29 05:40:45;;;;;;;6.70;3.20;;;;;;;15.15;nan;101636.75;5031063;28;20038;-60
2022/07/29 05:43:10;;;;;;;3.25;2.70;;;;;;;15.30;nan;101629.13;5032079;28;20037;-61
2022/07/29 05:45:36;;;;;;;3.75;2.60;;;;;;;15.58;nan;101653.69;5032120;28;20041;-60
2022/07/29 05:48:01;;;;;;;4.88;2.53;;;;;;;15.66;nan;101654.22;5031826;28;20473;-61
2022/07/29 05:50:26;;;;;;;4.30;2.42;;;;;;;15.79;nan;101649.28;5031698;28;20061;-60
2022/07/29 05:52:52;;;;;;;4.72;3.40;;;;;;;15.63;nan;101598.63;5034538;28;20124;-60
2022/07/29 05:55:17;;;;;;;4.97;2.78;;;;;;;15.81;nan;101599.66;5035833;28;20461;-61
2022/07/29 05:57:44;;;;;;;2.83;2.05;;;;;;;16.28;nan;101655.13;5034492;28;20455;-61
2022/07/29 06:00:10;;;;;;;2.38;1.75;;;;;;;16.37;nan;101659.19;5035877;28;20163;-62
2022/07/29 06:02:35;;;;;;;4.35;2.03;;;;;;;16.49;nan;101653.31;5035660;28;20492;-61
2022/07/29 06:05:00;;;;;;;2.38;1.98;;;;;;;16.51;nan;101632.88;5035769;28;20033;-61
2022/07/29 06:07:26;;;;;;;2.33;2.13;;;;;;;16.65;nan;101640.25;5051028;28;20048;-61
2022/07/29 06:09:51;;;;;;;3.65;1.90;;;;;;;16.73;nan;101654.94;5035647;28;20091;-61
2022/07/29 06:12:16;;;;;;;3.10;1.75;;;;;;;16.33;nan;101615.06;5035727;28;20171;-60
2022/07/29 06:14:42;;;;;;;5.22;2.00;;;;;;;16.65;nan;101648.22;5035640;28;20052;-61
2022/07/29 06:17:07;;;;;;;4.05;1.83;;;;;;;16.76;nan;101633.53;5034303;28;20416;-62
2022/07/29 06:19:36;;;;;;;5.85;1.77;;;;;;;16.82;nan;101597.81;5035268;28;20040;-61
2022/07/29 06:22:01;;;;;;;2.72;2.25;;;;;;;17.20;nan;101662.53;5035600;28;20049;-61
2022/07/29 06:24:26;;;;;;;2.97;2.10;;;;;;;17.27;nan;101666.63;5035501;28;20040;-60
2022/07/29 06:26:52;;;;;;;2.15;1.63;;;;;;;17.38;nan;101661.66;5035245;28;20104;-62
2022/07/29 06:29:18;;;;;;;7.28;2.47;;;;;;;17.51;nan;101675.25;5033980;28;20037;-60
2022/07/29 06:31:43;;;;;;;2.58;1.58;;;;;;;17.49;nan;101679.78;5034287;28;20044;-60
2022/07/29 06:34:08;;;;;;;3.58;1.75;;;;;;;17.11;nan;101631.03;5035031;28;20033;-61
2022/07/29 06:36:35;;;;;;;2.80;1.75;;;;;;;17.35;nan;101678.66;5035412;28;20530;-61
2022/07/29 06:39:01;;;;;;;3.25;2.00;;;;;;;17.43;nan;101680.94;5050437;28;20124;-61
2022/07/29 06:41:26;;;;;;;2.33;1.45;;;;;;;17.54;nan;101678.66;5035077;28;20553;-62
2022/07/29 06:43:51;;;;;;;1.85;1.70;;;;;;;17.57;nan;101675.00;5034975;28;20398;-63
2022/07/29 06:46:18;;;;;;;3.20;2.00;;;;;;;17.58;nan;101672.25;5050106;28;20484;-62
2022/07/29 06:48:44;;;;;;;4.40;1.88;;;;;;;17.72;nan;101661.78;5050274;28;20033;-61
2022/07/29 06:51:10;;;;;;;4.07;1.85;;;;;;;17.43;nan;101636.56;5017252;28;20441;-60
2022/07/29 06:53:35;;;;;;;2.80;1.95;;;;;;;17.43;nan;101627.69;5033476;28;20043;-60
2022/07/29 06:56:02;;;;;;;4.35;2.13;;;;;;;17.96;nan;101697.88;5034840;28;20030;-61
2022/07/29 06:58:28;;;;;;;3.65;2.13;;;;;;;17.89;nan;101677.78;5033413;28;20112;-60
2022/07/29 07:00:53;;;;;;;3.72;1.70;;;;;;;18.10;nan;101681.19;5034520;28;20532;-61
2022/07/29 07:03:19;;;;;;;3.00;1.88;;;;;;;18.04;nan;101692.16;5033898;28;20037;-61
2022/07/29 07:05:45;;;;;;;4.90;2.05;;;;;;;18.20;nan;101695.78;5034670;28;20091;-61
2022/07/29 07:08:11;;;;;;;5.00;2.30;;;;;;;17.76;nan;101663.38;5034719;28;20044;-63
2022/07/29 07:10:36;;;;;;;4.20;2.15;;;;;;;18.12;nan;101706.00;5033391;28;20150;-62
2022/07/29 07:13:02;;;;;;;3.10;2.22;;;;;;;18.08;nan;101660.91;5034439;28;20121;-62
2022/07/29 07:15:28;;;;;;;2.65;1.70;;;;;;;17.51;nan;101558.13;5033180;28;20469;-61
2022/07/29 07:17:53;;;;;;;4.80;1.75;;;;;;;18.01;nan;101651.50;5034230;28;20143;-62
2022/07/29 07:20:19;;;;;;;4.18;1.90;;;;;;;18.24;nan;101702.69;5034459;28;20069;-61
2022/07/29 07:22:44;;;;;;;5.55;2.20;;;;;;;18.19;nan;101703.84;5034482;28;20049;-61
2022/07/29 07:25:10;;;;;;;2.83;1.52;;;;;;;17.78;nan;101655.28;5034314;28;20037;-62
2022/07/29 07:27:36;;;;;;;5.20;1.90;;;;;;;17.86;nan;101683.28;5032904;28;20127;-62
2022/07/29 07:30:02;;;;;;;2.58;1.95;;;;;;;17.92;nan;101706.94;5032985;28;20361;-63
2022/07/29 07:32:28;;;;;;;2.45;1.70;;;;;;;17.54;nan;101656.47;5033885;28;20088;-61
2022/07/29 07:34:53;;;;;;;2.67;2.38;;;;;;;17.81;nan;101693.31;5032944;28;20041;-62
2022/07/29 07:37:20;;;;;;;6.50;2.15;;;;;;;17.75;nan;101695.38;5032641;28;20072;-63
2022/07/29 07:39:46;;;;;;;4.90;1.98;;;;;;;17.79;nan;101692.53;5034097;28;20088;-62
2022/07/29 07:42:12;;;;;;;4.10;2.58;;;;;;;17.72;nan;101704.41;5033995;28;20033;-62
2022/07/29 07:44:38;;;;;;;3.75;2.20;;;;;;;17.81;nan;101698.63;5032507;28;20417;-62
2022/07/29 07:47:04;;;;;;;3.38;2.38;;;;;;;17.70;nan;101694.75;5033855;28;20037;-62
2022/07/29 07:49:29;;;;;;;2.63;1.90;;;;;;;17.55;nan;101644.91;5033821;28;20374;-61
2022/07/29 07:51:55;;;;;;;5.13;2.60;;;;;;;17.91;nan;101689.25;5033779;28;20045;-61
2022/07/29 07:54:20;;;;;;;4.00;2.30;;;;;;;17.92;nan;101651.00;5033637;28;20044;-62
2022/07/29 07:56:48;;;;;;;2.40;2.20;;;;;;;18.41;nan;101708.03;5034006;28;20388;-63
2022/07/29 07:59:14;;;;;;;2.97;2.30;;;;;;;18.60;nan;101701.78;5033686;28;20462;-63
2022/07/29 08:01:39;;;;;;;3.45;2.60;;;;;;;18.82;nan;101710.41;5033589;28;20112;-61
2022/07/29 08:04:04;;;;;;;2.90;1.98;;;;;;;18.71;nan;101673.59;5034016;28;20095;-62
2022/07/29 08:06:29;;;;;;;4.15;2.28;;;;;;;19.21;nan;101707.38;5033755;28;20052;-60
2022/07/29 08:08:55;;;;;;;2.65;2.00;;;;;;;19.14;nan;101692.66;5032418;28;20401;-62
2022/07/29 08:11:20;;;;;;;5.13;2.50;;;;;;;19.22;nan;101667.28;5033287;28;20041;-61
2022/07/29 08:13:47;;;;;;;2.70;2.45;;;;;;;19.56;nan;101709.88;5031857;28;20045;-62
2022/07/29 08:16:12;;;;;;;4.30;2.50;;;;;;;19.40;nan;101655.59;5032120;28;20033;-63
2022/07/29 08:18:39;;;;;;;3.72;2.80;;;;;;;19.78;nan;101696.16;5033463;28;20396;-64
2022/07/29 08:21:04;;;;;;;4.38;2.45;;;;;;;19.65;nan;101668.41;5032281;28;20063;-61
2022/07/29 08:23:39;;;;;;;3.83;2.15;;;;;;;19.95;nan;101719.25;5033182;28;20480;-61
2022/07/29 08:26:10;;;;;;;3.75;2.80;;;;;;;19.74;nan;101710.63;5033099;28;20408;-62
2022/07/29 08:28:40;;;;;;;7.22;3.05;;;;;;;19.23;nan;101661.00;5031763;28;20029;-63
2022/07/29 08:31:05;;;;;;;4.25;2.65;;;;;;;19.67;nan;101707.44;5032944;28;20059;-63
2022/07/29 08:33:31;;;;;;;2.95;2.42;;;;;;;19.56;nan;101636.88;5033006;28;20480;-63
2022/07/29 08:35:56;;;;;;;4.57;2.47;;;;;;;19.74;nan;101715.97;5032974;28;20029;-62
2022/07/29 08:38:21;;;;;;;2.58;2.20;;;;;;;19.98;nan;101719.94;5033087;28;20123;-63
2022/07/29 08:40:47;;;;;;;3.78;1.90;;;;;;;20.19;nan;101721.38;5032838;28;20592;-62
2022/07/29 08:43:12;;;;;;;3.65;2.45;;;;;;;20.21;nan;101671.34;5031503;28;20030;-61
2022/07/29 08:45:47;;;;;;;3.58;2.20;;;;;;;20.32;nan;101686.78;5031661;28;20120;-62
2022/07/29 08:48:13;;;;;;;4.65;1.88;;;;;;;20.59;nan;101751.13;5033002;28;20416;-61
2022/07/29 08:50:39;;;;;;;4.63;2.58;;;;;;;20.22;nan;101733.69;5031576;28;20065;-62
2022/07/29 08:53:11;;;;;;;5.97;2.38;;;;;;;19.99;nan;101672.69;5015040;28;20072;-62
2022/07/29 08:55:47;;;;;;;3.15;2.47;;;;;;;20.06;nan;101680.25;5032367;28;20067;-62
2022/07/29 08:58:13;;;;;;;5.63;2.83;;;;;;;20.50;nan;101725.78;5031450;28;20036;-62
2022/07/29 09:00:42;;;;;;;4.22;2.42;;;;;;;20.57;nan;101735.19;5032075;28;20477;-61
2022/07/29 09:03:09;;;;;;;3.00;2.22;;;;;;;20.63;nan;101739.31;5030683;28;20118;-61
2022/07/29 09:05:34;;;;;;;10.32;2.83;;;;;;;20.50;nan;101682.13;5031246;28;20079;-62
2022/07/29 09:08:00;;;;;;;4.32;2.53;;;;;;;20.85;nan;101733.50;5030451;28;20064;-63
2022/07/29 09:10:26;;;;;;;4.45;2.25;;;;;;;21.07;nan;101675.88;5030310;28;20041;-62
2022/07/29 09:12:52;;;;;;;6.57;2.85;;;;;;;21.19;nan;101709.94;5032176;28;20033;-62
2022/07/29 09:15:18;;;;;;;6.10;2.63;;;;;;;21.36;nan;101727.63;5047571;28;20163;-62
2022/07/29 09:17:46;;;;;;;4.78;2.72;;;;;;;21.69;nan;101724.59;5031142;28;20515;-62
2022/07/29 09:20:20;;;;;;;4.68;2.80;;;;;;;21.64;nan;101711.50;5031007;28;20048;-61
2022/07/29 09:22:48;;;;;;;4.93;3.08;;;;;;;21.44;nan;101728.00;5032338;28;20045;-61
2022/07/29 09:25:33;;;;;;;4.88;3.20;;;;;;;21.41;nan;101690.69;5032186;28;20030;-63
2022/07/29 09:28:13;;;;;;;8.48;3.17;;;;;;;21.93;nan;101720.38;5032254;28;20083;-62
2022/07/29 09:30:54;;;;;;;4.07;2.72;;;;;;;22.24;nan;101728.09;5030803;28;20040;-61
2022/07/29 09:33:22;;;;;;;4.22;3.13;;;;;;;22.60;nan;101722.06;5030795;28;20129;-62
2022/07/29 09:36:03;;;;;;;3.75;2.90;;;;;;;23.55;nan;101694.78;5031077;28;20048;-62
2022/07/29 09:38:29;;;;;;;4.05;2.83;;;;;;;24.65;nan;101748.28;5030886;28;20030;-62
2022/07/29 09:40:59;;;;;;;4.97;2.83;;;;;;;25.13;nan;101705.94;5030899;28;20386;-61
2022/07/29 09:43:24;;;;;;;3.97;3.00;;;;;;;25.68;nan;101740.97;5032041;28;20377;-61
2022/07/29 09:45:49;;;;;;;4.22;3.10;;;;;;;25.97;nan;101760.16;5031919;28;20064;-62
2022/07/29 09:48:25;;;;;;;6.78;3.30;;;;;;;24.77;nan;101711.47;5031931;28;20548;-64
2022/07/29 09:50:51;;;;;;;4.00;3.00;;;;;;;25.28;nan;101749.66;5032166;28;20082;-63
2022/07/29 09:53:37;;;;;;;3.28;2.80;;;;;;;25.77;nan;101746.59;5031687;28;20041;-64
2022/07/29 09:56:05;;;;;;;4.45;2.55;;;;;;;26.45;nan;101752.50;5031649;28;20038;-65
2022/07/29 09:58:30;;;;;;;4.60;3.15;;;;;;;26.01;nan;101749.94;5031645;28;20114;-60
2022/07/29 10:00:56;;;;;;;4.93;2.88;;;;;;;26.48;nan;101735.19;5031953;28;20080;-63
2022/07/29 10:03:22;;;;;;;4.15;2.85;;;;;;;25.84;nan;101718.09;5030602;28;20377;-63
2022/07/29 10:06:04;;;;;;;5.15;3.08;;;;;;;26.60;nan;101699.91;5030545;28;20045;-63
2022/07/29 10:08:31;;;;;;;8.80;2.85;;;;;;;26.62;nan;101764.59;5030491;28;20455;-62
2022/07/29 10:11:09;;;;;;;4.63;3.10;;;;;;;26.46;nan;101756.06;5031729;28;20034;-62
2022/07/29 10:13:35;;;;;;;6.20;3.15;;;;;;;26.68;nan;101750.56;5031939;28;20037;-63
2022/07/29 10:16:00;;;;;;;6.40;2.85;;;;;;;27.11;nan;101716.19;5031893;28;20124;-64
2022/07/29 10:18:26;;;;;;;3.70;2.70;;;;;;;27.86;nan;101740.09;5030449;28;20211;-62
2022/07/29 10:20:51;;;;;;;3.88;2.88;;;;;;;27.90;nan;101758.59;5030631;28;20041;-63
2022/07/29 10:23:17;;;;;;;5.20;2.88;;;;;;;27.88;nan;101752.47;5030481;28;20037;-63
2022/07/29 10:25:42;;;;;;;4.97;2.33;;;;;;;27.96;nan;101762.63;5030211;28;20080;-64
2022/07/29 10:28:07;;;;;;;6.88;3.03;;;;;;;27.64;nan;101746.56;5030567;28;20057;-63
2022/07/29 10:30:33;;;;;;;5.63;2.83;;;;;;;27.18;nan;101736.25;5031717;28;20072;-64
2022/07/29 10:33:15;;;;;;;4.53;2.33;;;;;;;27.49;nan;101768.72;5030535;28;20064;-63
2022/07/29 10:36:05;;;;;;;4.30;2.30;;;;;;;27.03;nan;101747.56;5030529;28;20041;-64
2022/07/29 10:38:34;;;;;;;5.78;2.28;;;;;;;27.71;nan;101755.00;5032007;28;20022;-63
2022/07/29 10:41:27;;;;;;;5.57;2.55;;;;;;;26.99;nan;101763.19;5035395;28;20025;-63
2022/07/29 10:43:59;;;;;;;5.13;2.22;;;;;;;27.14;nan;101702.41;5035337;28;20220;-63
2022/07/29 10:46:25;;;;;;;2.05;1.85;;;;;;;28.36;nan;101746.28;5033909;28;20396;-63
2022/07/29 10:49:15;;;;;;;2.38;1.73;;;;;;;28.95;nan;101763.25;5035019;28;20499;-63
2022/07/29 10:52:02;;;;;;;5.00;2.25;;;;;;;29.03;nan;101732.69;5035013;28;20025;-63
2022/07/29 10:57:15;;;;;;;3.25;2.05;;;;;;;29.39;nan;101750.84;5034922;28;20485;-61
2022/07/29 10:59:42;;;;;;;3.53;2.13;;;;;;;29.01;nan;101750.97;5035008;28;20112;-64
2022/07/29 11:02:33;;;;;;;7.03;2.95;;;;;;;28.93;nan;101758.94;5034994;28;20099;-63
2022/07/29 11:04:59;;;;;;;3.20;2.70;;;;;;;28.86;nan;101753.28;5034593;28;20033;-62
2022/07/29 11:07:25;;;;;;;4.72;2.20;;;;;;;28.56;nan;101695.66;5050133;28;20041;-63
2022/07/29 11:10:19;;;;;;;3.97;2.22;;;;;;;29.58;nan;101742.63;5034826;28;20041;-64
2022/07/29 11:12:45;;;;;;;3.75;2.05;;;;;;;29.88;nan;101759.63;5034743;28;20028;-63
2022/07/29 11:15:18;;;;;;;2.90;1.80;;;;;;;29.86;nan;101699.22;5034757;28;20036;-64
2022/07/29 11:18:02;;;;;;;7.32;2.38;;;;;;;29.87;nan;101744.34;5033471;28;20547;-63
2022/07/29 11:20:47;;;;;;;4.75;2.00;;;;;;;29.53;nan;101697.97;5050024;28;20061;-63
2022/07/29 11:23:23;;;;;;;3.53;2.08;;;;;;;29.72;nan;101749.38;5034416;28;20112;-63
2022/07/29 11:26:21;;;;;;;3.22;1.50;;;;;;;29.70;nan;101747.84;5034175;28;20132;-65
2022/07/29 11:28:55;;;;;;;5.82;1.50;;;;;;;29.19;nan;101751.88;5033128;28;20181;-64
2022/07/29 11:31:37;;;;;;;3.10;1.77;;;;;;;29.88;nan;101744.19;5049463;28;20037;-65
2022/07/29 11:34:36;;;;;;;4.28;2.13;;;;;;;29.31;nan;101741.72;5049359;28;20029;-64
2022/07/29 11:37:13;;;;;;;5.40;1.90;;;;;;;29.28;nan;101748.31;5000963;28;20108;-64
2022/07/29 11:40:06;;;;;;;6.28;1.83;;;;;;;29.83;nan;101730.22;5033911;28;20084;-66
2022/07/29 11:42:32;;;;;;;3.78;1.50;;;;;;;30.83;nan;101743.56;5033686;28;20029;-64
2022/07/29 11:45:07;;;;;;;6.33;1.73;;;;;;;30.55;nan;101738.28;5034020;28;20462;-64
2022/07/29 11:47:38;;;;;;;2.13;1.35;;;;;;;30.84;nan;101718.94;5032708;28;20288;-63
2022/07/29 11:50:06;;;;;;;4.35;1.35;;;;;;;31.19;nan;101702.53;5032606;28;20041;-64